createdAt,value
2018-12-18T00:00:37.151Z,-5.97
2018-12-18T00:01:46.819Z,-6
2018-12-18T00:02:56.745Z,-5.94
2018-12-18T00:04:06.666Z,-6.06
2018-12-18T00:05:16.689Z,-6.09
2018-12-18T00:06:26.617Z,-6.03
2018-12-18T00:07:36.547Z,-6.06
2018-12-18T00:08:46.467Z,-5.99
2018-12-18T00:09:56.400Z,-6.05
2018-12-18T00:11:06.380Z,-6.05
2018-12-18T00:12:16.305Z,-6.06
2018-12-18T00:13:26.241Z,-6.06
2018-12-18T00:14:36.166Z,-6.07
2018-12-18T00:15:46.926Z,-6.07
2018-12-18T00:16:56.902Z,-6.03
2018-12-18T00:18:06.581Z,-6.02
2018-12-18T00:19:16.499Z,-6.21
2018-12-18T00:20:26.420Z,-6.24
2018-12-18T00:21:36.346Z,-6.27
2018-12-18T00:22:46.367Z,-6.38
2018-12-18T00:23:56.294Z,-6.38
2018-12-18T00:25:06.220Z,-6.33
2018-12-18T00:26:16.138Z,-6.36
2018-12-18T00:27:26.060Z,-6.38
2018-12-18T00:28:36.030Z,-6.41
2018-12-18T00:29:45.957Z,-6.39
2018-12-18T00:30:55.893Z,-6.41
2018-12-18T00:32:05.815Z,-6.41
2018-12-18T00:33:15.742Z,-6.51
2018-12-18T00:34:25.711Z,-6.54
2018-12-18T00:35:35.633Z,-6.52
2018-12-18T00:36:45.553Z,-6.6
2018-12-18T00:37:55.476Z,-6.66
2018-12-18T00:39:05.396Z,-6.6
2018-12-18T00:40:15.420Z,-6.54
2018-12-18T00:41:25.347Z,-6.48
2018-12-18T00:42:35.268Z,-6.34
2018-12-18T00:43:45.190Z,-6.28
2018-12-18T00:44:55.115Z,-6.26
2018-12-18T00:46:05.093Z,-6.24
2018-12-18T00:47:15.014Z,-6.13
2018-12-18T00:48:24.936Z,-6.07
2018-12-18T00:49:34.858Z,-6.07
2018-12-18T00:50:44.784Z,-5.88
2018-12-18T00:51:54.908Z,-5.87
2018-12-18T00:53:04.833Z,-5.77
2018-12-18T00:54:14.752Z,-5.81
2018-12-18T00:55:24.671Z,-5.64
2018-12-18T00:56:34.599Z,-5.66
2018-12-18T00:57:44.574Z,-5.71
2018-12-18T00:58:54.494Z,-5.68
2018-12-18T01:00:04.160Z,-5.73
2018-12-18T01:01:14.081Z,-5.89
2018-12-18T01:02:24.004Z,-6.06
2018-12-18T01:03:33.929Z,-6.33
2018-12-18T01:04:43.859Z,-6.48
2018-12-18T01:05:53.785Z,-6.61
2018-12-18T01:07:03.705Z,-6.73
2018-12-18T01:08:13.625Z,-6.84
2018-12-18T01:09:23.601Z,-6.88
2018-12-18T01:10:33.525Z,-6.86
2018-12-18T01:11:43.447Z,-6.97
2018-12-18T01:12:53.365Z,-6.95
2018-12-18T01:14:03.286Z,-7.05
2018-12-18T01:15:13.308Z,-7.09
2018-12-18T01:16:23.223Z,-7.13
2018-12-18T01:17:33.146Z,-7.13
2018-12-18T01:18:43.065Z,-7.15
2018-12-18T01:19:52.983Z,-7.18
2018-12-18T01:21:03.009Z,-7.18
2018-12-18T01:22:12.928Z,-7.36
2018-12-18T01:23:22.845Z,-7.39
2018-12-18T01:24:32.764Z,-7.52
2018-12-18T01:25:42.689Z,-7.52
2018-12-18T01:26:52.618Z,-7.5
2018-12-18T01:28:02.540Z,-7.56
2018-12-18T01:29:12.457Z,-7.48
2018-12-18T01:30:22.381Z,-7.52
2018-12-18T01:31:32.300Z,-7.5
2018-12-18T01:32:42.368Z,-7.63
2018-12-18T01:33:52.296Z,-7.55
2018-12-18T01:35:06.936Z,-7.62
2018-12-18T01:36:16.606Z,-7.66
2018-12-18T01:37:26.528Z,-7.75
2018-12-18T01:38:36.457Z,-7.71
2018-12-18T01:39:46.379Z,-7.59
2018-12-18T01:40:56.297Z,-7.6
2018-12-18T01:42:06.233Z,-7.6
2018-12-18T01:43:16.153Z,-7.57
2018-12-18T01:44:26.122Z,-7.67
2018-12-18T01:45:35.803Z,-7.73
2018-12-18T01:46:45.720Z,-7.66
2018-12-18T01:47:55.645Z,-7.74
2018-12-18T01:49:05.571Z,-7.77
2018-12-18T01:50:15.591Z,-7.92
2018-12-18T01:51:25.510Z,-7.94
2018-12-18T01:52:35.434Z,-7.89
2018-12-18T01:53:45.358Z,-7.99
2018-12-18T01:54:54.771Z,-7.89
2018-12-18T01:56:04.745Z,-7.91
2018-12-18T01:57:14.664Z,-7.92
2018-12-18T01:58:24.582Z,-8.05
2018-12-18T01:59:34.504Z,-7.95
2018-12-18T02:00:44.442Z,-7.96
2018-12-18T02:01:54.411Z,-7.73
2018-12-18T02:03:04.334Z,-7.59
2018-12-18T02:04:14.258Z,-7.59
2018-12-18T02:05:24.185Z,-7.46
2018-12-18T02:06:34.111Z,-7.35
2018-12-18T02:07:44.137Z,-7.27
2018-12-18T02:08:54.062Z,-7.27
2018-12-18T02:10:03.987Z,-7.23
2018-12-18T02:11:13.973Z,-7.18
2018-12-18T02:12:23.896Z,-7.13
2018-12-18T02:13:33.915Z,-7.1
2018-12-18T02:14:43.587Z,-7.14
2018-12-18T02:15:53.506Z,-7.1
2018-12-18T02:17:03.432Z,-7.09
2018-12-18T02:18:13.352Z,-7.09
2018-12-18T02:19:23.329Z,-7.18
2018-12-18T02:20:33.257Z,-7.17
2018-12-18T02:21:43.181Z,-7.21
2018-12-18T02:22:53.101Z,-7.28
2018-12-18T02:24:02.772Z,-7.25
2018-12-18T02:25:12.794Z,-7.28
2018-12-18T02:26:22.713Z,-7.36
2018-12-18T02:27:32.633Z,-7.42
2018-12-18T02:28:42.623Z,-7.28
2018-12-18T02:29:52.542Z,-7.35
2018-12-18T02:31:02.514Z,-7.35
2018-12-18T02:32:12.440Z,-7.42
2018-12-18T02:33:22.377Z,-7.46
2018-12-18T02:34:32.322Z,-7.53
2018-12-18T02:35:42.290Z,-7.59
2018-12-18T02:36:52.312Z,-7.55
2018-12-18T02:38:02.241Z,-7.59
2018-12-18T02:39:12.173Z,-7.62
2018-12-18T02:40:22.107Z,-7.62
2018-12-18T02:41:32.033Z,-7.55
2018-12-18T02:42:42.059Z,-7.53
2018-12-18T02:43:51.979Z,-7.57
2018-12-18T02:45:01.901Z,-7.59
2018-12-18T02:46:11.831Z,-7.56
2018-12-18T02:47:21.755Z,-7.5
2018-12-18T02:48:31.784Z,-7.63
2018-12-18T02:49:41.770Z,-7.5
2018-12-18T02:50:51.499Z,-7.57
2018-12-18T02:52:01.505Z,-7.57
2018-12-18T02:53:11.428Z,-7.55
2018-12-18T02:54:21.411Z,-7.46
2018-12-18T02:55:31.336Z,-7.59
2018-12-18T02:56:41.263Z,-7.53
2018-12-18T02:57:51.184Z,-7.55
2018-12-18T02:59:01.106Z,-7.55
2018-12-18T03:00:11.085Z,-7.66
2018-12-18T03:01:21.018Z,-7.73
2018-12-18T03:02:30.961Z,-7.64
2018-12-18T03:03:40.878Z,-7.7
2018-12-18T03:04:50.555Z,-7.75
2018-12-18T03:06:00.576Z,-7.66
2018-12-18T03:07:10.263Z,-7.73
2018-12-18T03:08:20.188Z,-7.71
2018-12-18T03:09:30.114Z,-7.74
2018-12-18T03:10:40.057Z,-7.66
2018-12-18T03:11:50.084Z,-7.66
2018-12-18T03:13:00.025Z,-7.64
2018-12-18T03:14:09.945Z,-7.74
2018-12-18T03:15:19.885Z,-7.73
2018-12-18T03:16:29.911Z,-7.71
2018-12-18T03:17:39.932Z,-7.83
2018-12-18T03:18:49.872Z,-7.81
2018-12-18T03:19:59.800Z,-7.77
2018-12-18T03:21:09.755Z,-7.84
2018-12-18T03:22:19.688Z,-7.84
2018-12-18T03:23:29.725Z,-7.92
2018-12-18T03:24:39.668Z,-7.95
2018-12-18T03:25:49.591Z,-7.88
2018-12-18T03:26:59.523Z,-7.92
2018-12-18T03:28:09.459Z,-7.98
2018-12-18T03:29:19.490Z,-7.91
2018-12-18T03:30:29.431Z,-8.07
2018-12-18T03:31:39.389Z,-8.2
2018-12-18T03:32:49.383Z,-8.2
2018-12-18T03:33:59.327Z,-8.26
2018-12-18T03:35:09.325Z,-8.24
2018-12-18T03:36:19.247Z,-8.32
2018-12-18T03:37:29.174Z,-8.15
2018-12-18T03:38:39.119Z,-8.13
2018-12-18T03:39:49.050Z,-8.11
2018-12-18T03:40:59.048Z,-8.05
2018-12-18T03:42:08.974Z,-8.02
2018-12-18T03:43:18.899Z,-7.92
2018-12-18T03:44:28.822Z,-7.94
2018-12-18T03:45:38.787Z,-8.03
2018-12-18T03:46:48.815Z,-7.99
2018-12-18T03:47:58.741Z,-7.98
2018-12-18T03:49:08.663Z,-8.1
2018-12-18T03:50:18.585Z,-8.2
2018-12-18T03:51:28.517Z,-8.2
2018-12-18T03:52:38.556Z,-8.18
2018-12-18T03:53:48.483Z,-8.23
2018-12-18T03:54:58.464Z,-8.2
2018-12-18T03:56:08.384Z,-8.13
2018-12-18T03:57:18.314Z,-8.05
2018-12-18T03:58:28.295Z,-7.99
2018-12-18T03:59:38.223Z,-7.96
2018-12-18T04:00:48.146Z,-7.91
2018-12-18T04:01:58.073Z,-7.85
2018-12-18T04:03:07.997Z,-7.91
2018-12-18T04:04:17.970Z,-7.83
2018-12-18T04:05:27.918Z,-7.84
2018-12-18T04:06:37.850Z,-7.98
2018-12-18T04:07:47.790Z,-8.03
2018-12-18T04:08:57.787Z,-8.05
2018-12-18T04:10:07.809Z,-8.05
2018-12-18T04:11:17.729Z,-7.92
2018-12-18T04:12:27.668Z,-7.92
2018-12-18T04:13:37.591Z,-7.85
2018-12-18T04:14:47.525Z,-7.85
2018-12-18T04:15:57.558Z,-7.73
2018-12-18T04:17:07.620Z,-7.67
2018-12-18T04:18:17.552Z,-7.78
2018-12-18T04:19:27.476Z,-7.85
2018-12-18T04:20:37.407Z,-7.83
2018-12-18T04:21:47.439Z,-7.8
2018-12-18T04:22:57.363Z,-7.78
2018-12-18T04:24:07.288Z,-7.73
2018-12-18T04:25:16.970Z,-7.73
2018-12-18T04:26:26.892Z,-7.81
2018-12-18T04:27:36.869Z,-7.63
2018-12-18T04:28:46.801Z,-7.64
2018-12-18T04:29:56.726Z,-7.63
2018-12-18T04:31:06.653Z,-7.53
2018-12-18T04:32:16.601Z,-7.52
2018-12-18T04:33:26.625Z,-7.52
2018-12-18T04:34:42.633Z,-7.52
2018-12-18T04:35:52.899Z,-7.45
2018-12-18T04:37:02.822Z,-7.55
2018-12-18T04:38:12.756Z,-7.46
2018-12-18T04:39:22.728Z,-7.46
2018-12-18T04:40:32.648Z,-7.56
2018-12-18T04:41:42.573Z,-7.59
2018-12-18T04:42:52.504Z,-7.55
2018-12-18T04:44:02.534Z,-7.6
2018-12-18T04:45:12.553Z,-7.64
2018-12-18T04:46:23.443Z,-7.74
2018-12-18T04:47:33.368Z,-7.7
2018-12-18T04:48:43.302Z,-7.83
2018-12-18T04:49:53.233Z,-7.96
2018-12-18T04:51:03.014Z,-7.95
2018-12-18T04:52:12.945Z,-7.99
2018-12-18T04:53:22.906Z,-8.15
2018-12-18T04:54:32.835Z,-8.18
2018-12-18T04:55:42.527Z,-8.17
2018-12-18T04:56:52.508Z,-8.1
2018-12-18T04:58:02.427Z,-8.13
2018-12-18T04:59:12.359Z,-7.98
2018-12-18T05:00:22.277Z,-8.02
2018-12-18T05:01:32.203Z,-7.95
2018-12-18T05:02:42.124Z,-7.92
2018-12-18T05:03:52.054Z,-7.95
2018-12-18T05:05:01.999Z,-7.96
2018-12-18T05:06:11.931Z,-7.92
2018-12-18T05:07:21.856Z,-7.95
2018-12-18T05:08:31.888Z,-7.99
2018-12-18T05:09:41.811Z,-7.92
2018-12-18T05:10:51.737Z,-8.03
2018-12-18T05:12:01.663Z,-7.96
2018-12-18T05:13:11.343Z,-8.08
2018-12-18T05:14:21.422Z,-7.95
2018-12-18T05:15:31.098Z,-8.07
2018-12-18T05:16:41.021Z,-8.15
2018-12-18T05:17:50.946Z,-8.13
2018-12-18T05:19:00.889Z,-8.07
2018-12-18T05:20:11.151Z,-8.21
2018-12-18T05:21:22.443Z,-8.23
2018-12-18T05:22:32.367Z,-8.41
2018-12-18T05:23:42.289Z,-8.42
2018-12-18T05:24:52.212Z,-8.52
2018-12-18T05:26:02.232Z,-8.59
2018-12-18T05:27:12.162Z,-8.7
2018-12-18T05:28:22.080Z,-8.73
2018-12-18T05:29:32.011Z,-8.74
2018-12-18T05:30:41.932Z,-8.7
2018-12-18T05:31:51.716Z,-8.74
2018-12-18T05:33:01.654Z,-8.75
2018-12-18T05:34:11.594Z,-8.68
2018-12-18T05:35:21.517Z,-8.71
2018-12-18T05:36:31.436Z,-8.78
2018-12-18T05:37:41.452Z,-8.67
2018-12-18T05:38:51.380Z,-8.88
2018-12-18T05:40:01.044Z,-8.73
2018-12-18T05:41:10.723Z,-8.75
2018-12-18T05:42:20.641Z,-8.71
2018-12-18T05:43:31.101Z,-8.49
2018-12-18T05:44:41.042Z,-8.46
2018-12-18T05:45:50.959Z,-8.36
2018-12-18T05:47:00.882Z,-8.36
2018-12-18T05:48:10.560Z,-8.42
2018-12-18T05:49:20.582Z,-8.36
2018-12-18T05:50:30.504Z,-8.21
2018-12-18T05:51:40.424Z,-8.21
2018-12-18T05:52:50.340Z,-8.23
2018-12-18T05:54:00.259Z,-8.18
2018-12-18T05:55:10.289Z,-8.11
2018-12-18T05:56:20.210Z,-8.07
2018-12-18T05:57:30.131Z,-8.03
2018-12-18T05:58:40.049Z,-7.92
2018-12-18T05:59:49.973Z,-7.83
2018-12-18T06:00:59.948Z,-7.63
2018-12-18T06:02:09.874Z,-7.56
2018-12-18T06:03:19.797Z,-7.57
2018-12-18T06:04:29.731Z,-7.48
2018-12-18T06:05:39.653Z,-7.38
2018-12-18T06:06:49.370Z,-7.27
2018-12-18T06:07:59.292Z,-7.24
2018-12-18T06:09:09.217Z,-7.28
2018-12-18T06:10:19.144Z,-7.18
2018-12-18T06:11:29.064Z,-7.06
2018-12-18T06:12:39.086Z,-7.07
2018-12-18T06:13:49.002Z,-6.88
2018-12-18T06:14:58.931Z,-7.02
2018-12-18T06:16:08.854Z,-6.82
2018-12-18T06:17:18.775Z,-6.91
2018-12-18T06:18:28.743Z,-6.86
2018-12-18T06:19:38.665Z,-6.82
2018-12-18T06:20:48.593Z,-6.76
2018-12-18T06:21:58.512Z,-6.82
2018-12-18T06:23:08.435Z,-6.79
2018-12-18T06:24:18.449Z,-6.81
2018-12-18T06:25:28.374Z,-6.79
2018-12-18T06:26:38.301Z,-6.78
2018-12-18T06:27:48.229Z,-6.75
2018-12-18T06:28:58.165Z,-6.82
2018-12-18T06:30:08.143Z,-6.89
2018-12-18T06:31:18.066Z,-6.99
2018-12-18T06:32:27.985Z,-7.05
2018-12-18T06:33:37.911Z,-7.28
2018-12-18T06:34:47.845Z,-7.36
2018-12-18T06:35:57.877Z,-7.41
2018-12-18T06:37:07.808Z,-7.45
2018-12-18T06:38:17.738Z,-7.46
2018-12-18T06:39:27.675Z,-7.48
2018-12-18T06:40:37.656Z,-7.5
2018-12-18T06:41:47.690Z,-7.55
2018-12-18T06:42:58.177Z,-7.66
2018-12-18T06:44:08.112Z,-7.5
2018-12-18T06:45:18.040Z,-7.62
2018-12-18T06:46:27.964Z,-7.66
2018-12-18T06:47:37.995Z,-7.8
2018-12-18T06:48:47.915Z,-7.96
2018-12-18T06:49:57.831Z,-8.03
2018-12-18T06:51:07.749Z,-8.21
2018-12-18T06:52:17.670Z,-8.36
2018-12-18T06:53:27.647Z,-8.49
2018-12-18T06:54:37.572Z,-8.6
2018-12-18T06:55:47.491Z,-8.65
2018-12-18T06:56:57.411Z,-8.68
2018-12-18T06:58:07.332Z,-8.77
2018-12-18T06:59:17.427Z,-8.84
2018-12-18T07:00:27.357Z,-8.82
2018-12-18T07:01:37.290Z,-8.86
2018-12-18T07:02:47.217Z,-8.89
2018-12-18T07:03:57.142Z,-9.03
2018-12-18T07:05:07.105Z,-8.95
2018-12-18T07:06:22.153Z,-9.04
2018-12-18T07:07:32.072Z,-8.89
2018-12-18T07:08:42.001Z,-8.84
2018-12-18T07:09:51.921Z,-8.94
2018-12-18T07:11:01.894Z,-9.02
2018-12-18T07:12:11.814Z,-9.09
2018-12-18T07:13:21.731Z,-9.04
2018-12-18T07:14:31.656Z,-8.99
2018-12-18T07:15:41.580Z,-8.95
2018-12-18T07:16:51.553Z,-8.85
2018-12-18T07:18:01.470Z,-8.89
2018-12-18T07:19:11.158Z,-8.8
2018-12-18T07:20:21.095Z,-8.91
2018-12-18T07:21:31.083Z,-8.89
2018-12-18T07:22:41.109Z,-8.96
2018-12-18T07:23:51.048Z,-8.96
2018-12-18T07:25:01.019Z,-8.84
2018-12-18T07:26:10.949Z,-8.84
2018-12-18T07:27:20.947Z,-8.68
2018-12-18T07:28:30.917Z,-8.67
2018-12-18T07:29:40.986Z,-8.67
2018-12-18T07:30:50.976Z,-8.59
2018-12-18T07:32:00.903Z,-8.57
2018-12-18T07:33:10.902Z,-8.64
2018-12-18T07:34:20.875Z,-8.56
2018-12-18T07:35:30.863Z,-8.41
2018-12-18T07:36:40.795Z,-8.38
2018-12-18T07:37:50.467Z,-8.42
2018-12-18T07:39:00.420Z,-8.41
2018-12-18T07:40:10.460Z,-8.41
2018-12-18T07:41:20.377Z,-8.41
2018-12-18T07:42:30.295Z,-8.15
2018-12-18T07:43:40.212Z,-8.18
2018-12-18T07:44:50.150Z,-8.2
2018-12-18T07:46:00.117Z,-8.17
2018-12-18T07:47:10.034Z,-8.21
2018-12-18T07:48:19.953Z,-8.24
2018-12-18T07:49:29.971Z,-8.13
2018-12-18T07:50:39.890Z,-8.21
2018-12-18T07:51:49.971Z,-8.2
2018-12-18T07:52:59.891Z,-8.05
2018-12-18T07:54:09.820Z,-8.14
2018-12-18T07:55:19.739Z,-8.07
2018-12-18T07:56:29.669Z,-8.15
2018-12-18T07:57:40.305Z,-8.21
2018-12-18T07:58:50.223Z,-8.21
2018-12-18T08:00:00.144Z,-8.2
2018-12-18T08:01:10.070Z,-8.17
2018-12-18T08:02:19.987Z,-8.2
2018-12-18T08:03:30.005Z,-8.2
2018-12-18T08:04:39.936Z,-8.21
2018-12-18T08:05:49.879Z,-8.32
2018-12-18T08:06:59.799Z,-8.36
2018-12-18T08:08:09.720Z,-8.38
2018-12-18T08:09:19.741Z,-8.36
2018-12-18T08:10:29.660Z,-8.34
2018-12-18T08:11:39.599Z,-8.35
2018-12-18T08:12:49.533Z,-8.18
2018-12-18T08:13:59.450Z,-8.23
2018-12-18T08:15:09.465Z,-8.15
2018-12-18T08:16:19.393Z,-8.14
2018-12-18T08:17:29.313Z,-7.99
2018-12-18T08:18:39.234Z,-7.98
2018-12-18T08:19:49.157Z,-7.96
2018-12-18T08:20:59.131Z,-7.94
2018-12-18T08:22:09.128Z,-7.91
2018-12-18T08:23:19.043Z,-7.84
2018-12-18T08:24:28.964Z,-7.84
2018-12-18T08:25:38.975Z,-7.75
2018-12-18T08:26:49.493Z,-7.71
2018-12-18T08:27:59.495Z,-7.7
2018-12-18T08:29:09.417Z,-7.75
2018-12-18T08:30:19.337Z,-7.75
2018-12-18T08:31:29.273Z,-7.71
2018-12-18T08:32:39.243Z,-7.73
2018-12-18T08:33:49.172Z,-7.73
2018-12-18T08:34:59.104Z,-7.6
2018-12-18T08:36:09.035Z,-7.62
2018-12-18T08:37:18.963Z,-7.48
2018-12-18T08:38:28.988Z,-7.52
2018-12-18T08:39:38.907Z,-7.56
2018-12-18T08:40:48.842Z,-7.52
2018-12-18T08:41:58.772Z,-7.5
2018-12-18T08:43:08.706Z,-7.42
2018-12-18T08:44:18.679Z,-7.42
2018-12-18T08:45:28.601Z,-7.41
2018-12-18T08:46:38.532Z,-7.5
2018-12-18T08:47:48.470Z,-7.46
2018-12-18T08:48:58.398Z,-7.42
2018-12-18T08:50:08.376Z,-7.41
2018-12-18T08:51:18.300Z,-7.36
2018-12-18T08:52:28.229Z,-7.35
2018-12-18T08:53:38.153Z,-7.21
2018-12-18T08:54:48.078Z,-7.17
2018-12-18T08:55:58.099Z,-7.17
2018-12-18T08:57:08.029Z,-7.07
2018-12-18T08:58:17.700Z,-7.07
2018-12-18T08:59:27.627Z,-7.06
2018-12-18T09:00:37.296Z,-7.02
2018-12-18T09:01:47.267Z,-6.89
2018-12-18T09:02:57.187Z,-6.79
2018-12-18T09:04:07.102Z,-6.89
2018-12-18T09:05:17.025Z,-6.85
2018-12-18T09:06:26.950Z,-6.86
2018-12-18T09:07:36.868Z,-6.78
2018-12-18T09:08:46.792Z,-6.73
2018-12-18T09:09:56.708Z,-6.76
2018-12-18T09:11:06.630Z,-6.76
2018-12-18T09:12:16.558Z,-6.7
2018-12-18T09:13:26.578Z,-6.78
2018-12-18T09:14:36.500Z,-6.73
2018-12-18T09:15:46.488Z,-6.73
2018-12-18T09:16:57.363Z,-6.81
2018-12-18T09:18:07.356Z,-6.92
2018-12-18T09:19:17.393Z,-7.09
2018-12-18T09:20:27.062Z,-7.09
2018-12-18T09:21:36.986Z,-7.1
2018-12-18T09:22:46.912Z,-7.13
2018-12-18T09:23:56.842Z,-7.13
2018-12-18T09:25:08.288Z,-7.07
2018-12-18T09:26:18.212Z,-7.09
2018-12-18T09:27:28.133Z,-7.09
2018-12-18T09:28:38.068Z,-7.13
2018-12-18T09:29:47.998Z,-7.02
2018-12-18T09:30:58.021Z,-6.88
2018-12-18T09:32:07.943Z,-6.91
2018-12-18T09:33:17.868Z,-6.97
2018-12-18T09:34:27.820Z,-6.82
2018-12-18T09:35:37.746Z,-6.78
2018-12-18T09:36:54.839Z,-6.88
2018-12-18T09:38:04.760Z,-6.75
2018-12-18T09:39:14.696Z,-6.78
2018-12-18T09:40:24.736Z,-6.75
2018-12-18T09:41:34.667Z,-6.78
2018-12-18T09:42:44.704Z,-6.85
2018-12-18T09:43:54.635Z,-6.73
2018-12-18T09:45:04.561Z,-6.76
2018-12-18T09:46:14.490Z,-6.81
2018-12-18T09:47:24.407Z,-6.71
2018-12-18T09:48:34.433Z,-6.64
2018-12-18T09:49:44.371Z,-6.7
2018-12-18T09:50:54.298Z,-6.61
2018-12-18T09:52:04.221Z,-6.6
2018-12-18T09:53:14.150Z,-6.56
2018-12-18T09:54:24.178Z,-6.48
2018-12-18T09:55:34.097Z,-6.34
2018-12-18T09:56:44.030Z,-6.33
2018-12-18T09:57:53.950Z,-6.3
2018-12-18T09:59:03.870Z,-6.33
2018-12-18T10:00:13.792Z,-6.21
2018-12-18T10:01:23.717Z,-6.23
2018-12-18T10:02:33.641Z,-6.21
2018-12-18T10:03:43.561Z,-6.12
2018-12-18T10:04:53.234Z,-6
2018-12-18T10:06:03.156Z,-6
2018-12-18T10:07:13.084Z,-5.99
2018-12-18T10:08:23.011Z,-5.87
2018-12-18T10:09:32.932Z,-5.78
2018-12-18T10:10:42.919Z,-5.78
2018-12-18T10:11:52.950Z,-5.67
2018-12-18T10:13:02.879Z,-5.7
2018-12-18T10:14:12.570Z,-5.73
2018-12-18T10:15:22.495Z,-5.73
2018-12-18T10:16:32.428Z,-5.71
2018-12-18T10:17:42.363Z,-5.67
2018-12-18T10:18:53.725Z,-5.6
2018-12-18T10:20:03.660Z,-5.73
2018-12-18T10:21:13.581Z,-5.64
2018-12-18T10:22:23.511Z,-5.68
2018-12-18T10:23:33.543Z,-5.58
2018-12-18T10:24:43.473Z,-5.58
2018-12-18T10:25:53.398Z,-5.59
2018-12-18T10:27:03.070Z,-5.6
2018-12-18T10:28:12.998Z,-5.56
2018-12-18T10:29:23.023Z,-5.68
2018-12-18T10:30:32.953Z,-5.63
2018-12-18T10:31:42.890Z,-5.56
2018-12-18T10:32:52.817Z,-5.59
2018-12-18T10:34:02.490Z,-5.71
2018-12-18T10:35:12.411Z,-5.59
2018-12-18T10:36:22.339Z,-5.67
2018-12-18T10:37:32.268Z,-5.67
2018-12-18T10:38:42.207Z,-5.73
2018-12-18T10:39:52.160Z,-5.66
2018-12-18T10:41:02.142Z,-5.7
2018-12-18T10:42:12.065Z,-5.66
2018-12-18T10:43:21.986Z,-5.59
2018-12-18T10:44:31.911Z,-5.58
2018-12-18T10:45:41.834Z,-5.46
2018-12-18T10:46:51.868Z,-5.48
2018-12-18T10:48:01.801Z,-5.49
2018-12-18T10:49:11.726Z,-5.46
2018-12-18T10:50:21.651Z,-5.41
2018-12-18T10:51:31.575Z,-5.37
2018-12-18T10:52:41.597Z,-5.38
2018-12-18T10:53:51.528Z,-5.43
2018-12-18T10:55:01.451Z,-5.39
2018-12-18T10:56:11.387Z,-5.3
2018-12-18T10:57:21.322Z,-5.23
2018-12-18T10:58:31.399Z,-5.3
2018-12-18T10:59:41.326Z,-5.38
2018-12-18T11:00:51.269Z,-5.39
2018-12-18T11:02:01.272Z,-5.5
2018-12-18T11:03:11.216Z,-5.49
2018-12-18T11:04:21.243Z,-5.53
2018-12-18T11:05:31.171Z,-5.5
2018-12-18T11:06:41.093Z,-5.55
2018-12-18T11:07:50.774Z,-5.53
2018-12-18T11:09:00.698Z,-5.41
2018-12-18T11:10:10.727Z,-5.41
2018-12-18T11:11:20.708Z,-5.38
2018-12-18T11:12:30.382Z,-5.32
2018-12-18T11:13:40.311Z,-5.25
2018-12-18T11:14:50.236Z,-5.25
2018-12-18T11:16:00.191Z,-5.34
2018-12-18T11:17:10.120Z,-5.23
2018-12-18T11:18:20.044Z,-5.16
2018-12-18T11:19:29.972Z,-5.21
2018-12-18T11:20:39.894Z,-5.08
2018-12-18T11:21:49.920Z,-5.09
2018-12-18T11:22:59.849Z,-5.1
2018-12-18T11:24:09.795Z,-5.13
2018-12-18T11:25:19.726Z,-5.09
2018-12-18T11:26:29.652Z,-5.02
2018-12-18T11:27:39.579Z,-4.98
2018-12-18T11:28:49.515Z,-4.97
2018-12-18T11:29:59.455Z,-4.94
2018-12-18T11:31:09.389Z,-4.97
2018-12-18T11:32:19.313Z,-4.98
2018-12-18T11:33:29.305Z,-5.16
2018-12-18T11:34:38.978Z,-5.13
2018-12-18T11:35:48.651Z,-5.17
2018-12-18T11:36:58.592Z,-5.19
2018-12-18T11:38:08.551Z,-5.21
2018-12-18T11:39:18.524Z,-5.23
2018-12-18T11:40:27.946Z,-5.27
2018-12-18T11:41:37.875Z,-5.23
2018-12-18T11:42:47.795Z,-5.31
2018-12-18T11:43:57.717Z,-5.19
2018-12-18T11:45:07.743Z,-5.28
2018-12-18T11:46:17.685Z,-5.28
2018-12-18T11:47:27.620Z,-5.27
2018-12-18T11:48:37.543Z,-5.28
2018-12-18T11:49:47.473Z,-5.31
2018-12-18T11:50:57.505Z,-5.23
2018-12-18T11:52:07.439Z,-5.34
2018-12-18T11:53:17.368Z,-5.25
2018-12-18T11:54:27.296Z,-5.25
2018-12-18T11:55:36.978Z,-5.19
2018-12-18T11:56:46.910Z,-5.21
2018-12-18T11:57:56.834Z,-5.28
2018-12-18T11:59:06.776Z,-5.27
2018-12-18T12:00:16.703Z,-5.31
2018-12-18T12:01:26.631Z,-5.46
2018-12-18T12:02:42.683Z,-5.5
2018-12-18T12:03:52.900Z,-5.46
2018-12-18T12:05:02.825Z,-5.41
2018-12-18T12:06:12.764Z,-5.5
2018-12-18T12:07:28.400Z,-5.48
2018-12-18T12:08:38.438Z,-5.53
2018-12-18T12:09:48.125Z,-5.53
2018-12-18T12:10:58.052Z,-5.49
2018-12-18T12:12:07.978Z,-5.49
2018-12-18T12:13:18.017Z,-5.39
2018-12-18T12:14:27.951Z,-5.53
2018-12-18T12:15:37.620Z,-5.48
2018-12-18T12:16:47.542Z,-5.55
2018-12-18T12:17:57.466Z,-5.52
2018-12-18T12:19:07.397Z,-5.56
2018-12-18T12:20:17.324Z,-5.5
2018-12-18T12:21:27.250Z,-5.59
2018-12-18T12:22:37.177Z,-5.58
2018-12-18T12:23:46.849Z,-5.59
2018-12-18T12:24:56.823Z,-5.6
2018-12-18T12:26:06.752Z,-5.66
2018-12-18T12:27:16.489Z,-5.64
2018-12-18T12:28:26.412Z,-5.49
2018-12-18T12:29:36.341Z,-5.48
2018-12-18T12:30:46.317Z,-5.28
2018-12-18T12:31:56.244Z,-5.25
2018-12-18T12:33:06.175Z,-5.23
2018-12-18T12:34:16.095Z,-5.2
2018-12-18T12:35:26.017Z,-5.08
2018-12-18T12:36:36.004Z,-5.13
2018-12-18T12:37:45.929Z,-5.02
2018-12-18T12:38:55.857Z,-5.05
2018-12-18T12:40:05.790Z,-5
2018-12-18T12:41:15.722Z,-5
2018-12-18T12:42:25.747Z,-5.08
2018-12-18T12:43:35.463Z,-5.08
2018-12-18T12:44:45.384Z,-5.23
2018-12-18T12:45:55.311Z,-5.31
2018-12-18T12:47:05.242Z,-5.41
2018-12-18T12:48:15.224Z,-5.45
2018-12-18T12:49:25.151Z,-5.45
2018-12-18T12:50:35.081Z,-5.53
2018-12-18T12:51:45.008Z,-5.41
2018-12-18T12:52:54.935Z,-5.48
2018-12-18T12:54:05.014Z,-5.56
2018-12-18T12:55:14.957Z,-5.73
2018-12-18T12:56:24.886Z,-5.77
2018-12-18T12:57:34.812Z,-5.82
2018-12-18T12:58:44.813Z,-5.74
2018-12-18T12:59:54.893Z,-5.91
2018-12-18T13:01:04.828Z,-5.95
2018-12-18T13:02:14.761Z,-5.95
2018-12-18T13:03:24.690Z,-5.94
2018-12-18T13:04:34.618Z,-5.88
2018-12-18T13:05:44.643Z,-6.03
2018-12-18T13:06:54.593Z,-6.02
2018-12-18T13:08:04.527Z,-6.05
2018-12-18T13:09:14.473Z,-6.1
2018-12-18T13:10:24.402Z,-6.09
2018-12-18T13:11:34.190Z,-6.07
2018-12-18T13:12:44.121Z,-6.07
2018-12-18T13:13:53.813Z,-6.1
2018-12-18T13:15:03.757Z,-6.18
2018-12-18T13:16:13.686Z,-6.27
2018-12-18T13:17:23.717Z,-6.21
2018-12-18T13:18:33.645Z,-6.1
2018-12-18T13:19:43.578Z,-6.12
2018-12-18T13:20:53.263Z,-6.16
2018-12-18T13:22:03.197Z,-6.16
2018-12-18T13:23:13.180Z,-6.18
2018-12-18T13:24:23.113Z,-6.1
2018-12-18T13:25:33.043Z,-6.12
2018-12-18T13:26:42.970Z,-6.12
2018-12-18T13:27:52.900Z,-6.06
2018-12-18T13:29:02.975Z,-6.18
2018-12-18T13:30:12.906Z,-6.1
2018-12-18T13:31:22.832Z,-6.09
2018-12-18T13:32:32.756Z,-6.03
2018-12-18T13:33:42.699Z,-6.07
2018-12-18T13:34:52.633Z,-6.02
2018-12-18T13:36:02.560Z,-5.94
2018-12-18T13:37:12.486Z,-5.89
2018-12-18T13:38:22.421Z,-5.87
2018-12-18T13:39:32.347Z,-5.81
2018-12-18T13:40:42.331Z,-5.73
2018-12-18T13:41:52.254Z,-5.81
2018-12-18T13:43:02.180Z,-5.68
2018-12-18T13:44:12.113Z,-5.71
2018-12-18T13:45:21.832Z,-5.7
2018-12-18T13:46:31.863Z,-5.82
2018-12-18T13:47:41.792Z,-5.82
2018-12-18T13:48:51.721Z,-5.74
2018-12-18T13:50:01.655Z,-5.78
2018-12-18T13:51:11.593Z,-5.81
2018-12-18T13:52:21.619Z,-5.81
2018-12-18T13:53:31.554Z,-5.85
2018-12-18T13:54:41.482Z,-5.85
2018-12-18T13:55:51.405Z,-5.82
2018-12-18T13:57:01.341Z,-5.76
2018-12-18T13:58:11.366Z,-5.81
2018-12-18T13:59:21.299Z,-5.68
2018-12-18T14:00:31.233Z,-5.7
2018-12-18T14:01:41.165Z,-5.73
2018-12-18T14:02:51.092Z,-5.74
2018-12-18T14:04:02.491Z,-5.81
2018-12-18T14:05:12.589Z,-5.82
2018-12-18T14:06:22.553Z,-5.84
2018-12-18T14:07:32.475Z,-5.81
2018-12-18T14:08:42.403Z,-5.85
2018-12-18T14:09:52.436Z,-5.84
2018-12-18T14:11:02.359Z,-5.82
2018-12-18T14:12:12.283Z,-5.77
2018-12-18T14:13:21.963Z,-5.64
2018-12-18T14:14:31.930Z,-5.63
2018-12-18T14:15:41.922Z,-5.56
2018-12-18T14:16:51.604Z,-5.48
2018-12-18T14:18:01.534Z,-5.48
2018-12-18T14:19:11.463Z,-5.25
2018-12-18T14:20:21.387Z,-5.27
2018-12-18T14:21:31.359Z,-5.28
2018-12-18T14:22:41.290Z,-5.35
2018-12-18T14:23:51.213Z,-5.45
2018-12-18T14:25:01.143Z,-5.43
2018-12-18T14:26:11.068Z,-5.37
2018-12-18T14:27:21.143Z,-5.2
2018-12-18T14:28:31.098Z,-5.2
2018-12-18T14:29:40.772Z,-5.53
2018-12-18T14:30:50.702Z,-5.5
2018-12-18T14:32:00.639Z,-5.46
2018-12-18T14:33:10.616Z,-5.53
2018-12-18T14:34:20.564Z,-5.39
2018-12-18T14:35:30.497Z,-5.53
2018-12-18T14:36:40.742Z,-5.52
2018-12-18T14:37:50.669Z,-5.71
2018-12-18T14:39:00.693Z,-5.68
2018-12-18T14:40:10.628Z,-5.7
2018-12-18T14:41:20.550Z,-5.76
2018-12-18T14:42:30.480Z,-5.73
2018-12-18T14:43:40.415Z,-5.66
2018-12-18T14:44:50.492Z,-5.56
2018-12-18T14:46:00.478Z,-5.6
2018-12-18T14:47:10.419Z,-5.66
2018-12-18T14:48:20.342Z,-5.77
2018-12-18T14:49:30.337Z,-5.78
2018-12-18T14:50:40.313Z,-5.94
2018-12-18T14:51:50.234Z,-5.91
2018-12-18T14:53:00.164Z,-5.95
2018-12-18T14:54:10.097Z,-5.94
2018-12-18T14:55:19.772Z,-5.91
2018-12-18T14:56:29.856Z,-5.95
2018-12-18T14:57:39.781Z,-5.94
2018-12-18T14:58:49.706Z,-5.87
2018-12-18T14:59:59.640Z,-5.92
2018-12-18T15:01:09.573Z,-5.85
2018-12-18T15:02:19.643Z,-5.87
2018-12-18T15:03:29.568Z,-5.88
2018-12-18T15:04:39.492Z,-5.97